Time;durP1;ratioP1;P1;durP2;ratioP2;P2;SDS_P1;SDS_P2;PMS_P1;PMS_P2;Temp;Humidity;BMP_temperature;BMP_pressure;BME280_temperature;BME280_humidity;BME280_pressure;Samples;Min_cycle;Max_cycle;Signal;HPM_P1;HPM_P2
2023/03/14 00:01:58;;;;;;;2.80;2.80;;;11.90;69.70;;;;;;6289357;28;20306;-82
2023/03/14 00:05:02;;;;;;;3.20;3.10;;;11.90;69.70;;;;;;6287567;28;20713;-80
2023/03/14 00:08:05;;;;;;;3.13;2.97;;;11.90;69.80;;;;;;6286557;28;20226;-81
2023/03/14 00:11:13;;;;;;;3.40;3.30;;;11.90;69.70;;;;;;6294136;28;20233;-81
2023/03/14 00:14:16;;;;;;;3.50;3.30;;;11.80;70.00;;;;;;6286842;28;20318;-83
2023/03/14 00:17:19;;;;;;;3.03;2.83;;;11.70;70.30;;;;;;6302173;28;20241;-78
2023/03/14 00:20:22;;;;;;;3.00;2.90;;;11.70;70.30;;;;;;6292973;27;20233;-79
2023/03/14 00:23:25;;;;;;;2.90;2.90;;;11.70;70.30;;;;;;6289443;28;20241;-80
2023/03/14 00:26:30;;;;;;;3.50;3.30;;;11.60;70.40;;;;;;6285937;28;20312;-82
2023/03/14 00:29:33;;;;;;;3.07;2.97;;;11.50;70.70;;;;;;6294706;28;20277;-81
2023/03/14 00:32:37;;;;;;;2.77;2.67;;;11.50;70.70;;;;;;6285529;28;20245;-81
2023/03/14 00:35:41;;;;;;;2.80;2.80;;;11.50;70.80;;;;;;6285368;28;20612;-81
2023/03/14 00:38:46;;;;;;;2.70;2.70;;;11.40;71.20;;;;;;6283535;28;20237;-82
2023/03/14 00:41:50;;;;;;;3.23;3.13;;;11.40;71.30;;;;;;6257401;28;20238;-83
2023/03/14 00:44:54;;;;;;;3.00;2.87;;;11.40;71.50;;;;;;6261070;28;20635;-79
2023/03/14 00:47:59;;;;;;;3.40;3.30;;;11.30;71.70;;;;;;6291359;28;20751;-78
2023/03/14 00:51:04;;;;;;;3.30;3.20;;;11.30;71.90;;;;;;6282404;28;20252;-81
2023/03/14 00:54:07;;;;;;;3.63;3.53;;;11.30;72.10;;;;;;6287850;28;20684;-82
2023/03/14 00:57:12;;;;;;;3.07;2.97;;;11.20;72.20;;;;;;6299947;27;20769;-82
2023/03/14 01:00:16;;;;;;;3.30;3.10;;;11.10;72.40;;;;;;6285952;28;20716;-80
2023/03/14 01:03:19;;;;;;;3.03;2.80;;;11.10;72.50;;;;;;6284378;28;20217;-78
2023/03/14 01:06:24;;;;;;;3.30;3.10;;;11.10;72.60;;;;;;6293356;28;20252;-82
2023/03/14 01:09:27;;;;;;;3.67;3.57;;;11.10;72.50;;;;;;6290872;28;20280;-82
2023/03/14 01:12:32;;;;;;;3.03;2.93;;;11.10;72.60;;;;;;6290554;28;20401;-83
2023/03/14 01:15:35;;;;;;;3.07;2.97;;;11.10;72.90;;;;;;6290168;28;20288;-81
2023/03/14 01:18:41;;;;;;;3.47;3.27;;;11.10;72.90;;;;;;6293097;28;20700;-82
2023/03/14 01:21:44;;;;;;;3.20;3.03;;;11.00;73.00;;;;;;6275893;28;20237;-83
2023/03/14 01:24:47;;;;;;;3.10;3.00;;;11.00;73.10;;;;;;6292592;28;20842;-80
2023/03/14 01:27:51;;;;;;;2.83;2.83;;;11.00;73.20;;;;;;6290798;28;20285;-83
2023/03/14 01:30:54;;;;;;;3.10;2.97;;;11.00;73.10;;;;;;6299153;28;20697;-80
2023/03/14 01:33:57;;;;;;;2.93;2.83;;;11.00;73.10;;;;;;6299043;28;20843;-83
2023/03/14 01:37:00;;;;;;;2.93;2.83;;;11.00;73.20;;;;;;6290288;28;20225;-81
2023/03/14 01:40:05;;;;;;;3.00;2.90;;;11.00;73.10;;;;;;6290733;28;20392;-81
2023/03/14 01:43:16;;;;;;;2.60;2.60;;;11.00;73.10;;;;;;6301387;28;20225;-81
2023/03/14 01:46:34;;;;;;;2.70;2.63;;;11.10;73.00;;;;;;6306689;28;20260;-84
2023/03/14 01:49:38;;;;;;;2.67;2.53;;;11.10;73.00;;;;;;6296567;28;20327;-82
2023/03/14 01:52:45;;;;;;;2.80;2.60;;;11.10;73.00;;;;;;6307106;28;20237;-82
2023/03/14 01:55:49;;;;;;;2.70;2.70;;;11.10;72.70;;;;;;6291817;28;20248;-81
2023/03/14 01:58:53;;;;;;;2.63;2.63;;;11.20;72.50;;;;;;6296362;28;20224;-81
2023/03/14 02:01:57;;;;;;;2.57;2.57;;;11.20;72.50;;;;;;6290254;28;20229;-80
2023/03/14 02:05:00;;;;;;;2.70;2.50;;;11.10;72.60;;;;;;6285307;28;20312;-79
2023/03/14 02:08:08;;;;;;;3.00;2.90;;;11.10;72.70;;;;;;6321006;27;20241;-80
2023/03/14 02:11:12;;;;;;;2.47;2.47;;;11.00;72.90;;;;;;6290532;28;20400;-80
2023/03/14 02:14:26;;;;;;;2.67;2.57;;;11.00;73.10;;;;;;6292589;28;20614;-82
2023/03/14 02:17:29;;;;;;;2.50;2.40;;;10.90;73.20;;;;;;6286365;28;20263;-81
2023/03/14 02:20:40;;;;;;;2.60;2.60;;;11.00;73.10;;;;;;6292043;28;20234;-78
2023/03/14 02:23:52;;;;;;;3.00;2.80;;;10.90;73.10;;;;;;6288313;28;20225;-82
2023/03/14 02:27:12;;;;;;;2.50;2.50;;;10.90;73.00;;;;;;6297488;27;20705;-81
2023/03/14 02:30:20;;;;;;;2.67;2.67;;;10.90;73.20;;;;;;6287256;28;20237;-82
2023/03/14 02:33:24;;;;;;;2.70;2.70;;;10.90;73.20;;;;;;6288151;28;22428;-82
2023/03/14 02:36:28;;;;;;;2.50;2.50;;;10.80;73.30;;;;;;6297271;27;20498;-82
2023/03/14 02:39:37;;;;;;;2.40;2.40;;;10.90;73.00;;;;;;6289312;28;20786;-82
2023/03/14 02:42:42;;;;;;;3.07;2.80;;;10.90;73.00;;;;;;6277084;28;20824;-83
2023/03/14 02:45:46;;;;;;;2.50;2.50;;;10.90;73.10;;;;;;6292497;28;20241;-80
2023/03/14 02:48:56;;;;;;;2.60;2.60;;;10.90;72.90;;;;;;6280633;28;20283;-81
2023/03/14 02:51:59;;;;;;;2.30;2.30;;;10.90;72.90;;;;;;6302892;28;20246;-80
2023/03/14 02:55:03;;;;;;;2.70;2.60;;;10.90;72.90;;;;;;6281328;28;20229;-83
2023/03/14 02:58:08;;;;;;;2.70;2.70;;;10.90;72.90;;;;;;6291246;28;20233;-83
2023/03/14 03:01:11;;;;;;;2.60;2.60;;;10.80;73.00;;;;;;6304442;28;20271;-82
2023/03/14 03:04:14;;;;;;;2.57;2.57;;;10.80;72.90;;;;;;6290068;28;20709;-79
2023/03/14 03:07:17;;;;;;;2.80;2.70;;;10.80;73.00;;;;;;6289631;27;20469;-80
2023/03/14 03:10:20;;;;;;;2.50;2.50;;;10.80;72.90;;;;;;6290756;28;20367;-81
2023/03/14 03:13:26;;;;;;;2.57;2.57;;;10.90;72.60;;;;;;6293548;28;20720;-81
2023/03/14 03:16:31;;;;;;;2.70;2.57;;;10.90;72.60;;;;;;6305783;28;20241;-80
2023/03/14 03:19:35;;;;;;;2.80;2.70;;;10.80;72.70;;;;;;6288915;28;20663;-81
2023/03/14 03:22:38;;;;;;;2.77;2.67;;;10.80;72.70;;;;;;6263525;28;20240;-83
2023/03/14 03:25:45;;;;;;;2.53;2.43;;;10.70;72.80;;;;;;6286698;28;20252;-82
2023/03/14 03:28:51;;;;;;;2.90;2.77;;;10.80;72.70;;;;;;6300280;27;20849;-81
2023/03/14 03:31:54;;;;;;;2.80;2.60;;;10.80;72.60;;;;;;6296004;28;20237;-80
2023/03/14 03:34:59;;;;;;;3.03;2.93;;;10.80;72.60;;;;;;6284208;27;20229;-83
2023/03/14 03:38:02;;;;;;;2.63;2.40;;;10.80;72.30;;;;;;6280087;28;20247;-82
2023/03/14 03:41:06;;;;;;;2.73;2.43;;;10.80;72.50;;;;;;6295396;28;20241;-81
2023/03/14 03:44:12;;;;;;;5.00;2.80;;;10.80;72.50;;;;;;6292474;28;20607;-80
2023/03/14 03:47:15;;;;;;;2.53;2.43;;;10.70;72.60;;;;;;6287310;28;20255;-80
2023/03/14 03:50:19;;;;;;;2.50;2.40;;;10.70;72.50;;;;;;6285955;28;20237;-83
2023/03/14 03:53:22;;;;;;;2.20;2.20;;;10.70;72.60;;;;;;6295726;28;20241;-82
2023/03/14 03:56:35;;;;;;;2.77;2.57;;;10.60;72.70;;;;;;6275345;28;20287;-82
2023/03/14 03:59:40;;;;;;;2.50;2.50;;;10.60;72.70;;;;;;6287796;28;20240;-82
2023/03/14 04:02:44;;;;;;;2.20;2.20;;;10.60;72.70;;;;;;6287426;28;20241;-82
2023/03/14 04:05:47;;;;;;;2.60;2.50;;;10.60;72.30;;;;;;6287956;28;20292;-81
2023/03/14 04:08:52;;;;;;;2.30;2.30;;;10.70;72.10;;;;;;6292431;28;20221;-79
2023/03/14 04:11:55;;;;;;;2.47;2.47;;;10.80;71.90;;;;;;6302916;28;20241;-81
2023/03/14 04:14:59;;;;;;;2.43;2.43;;;10.70;71.80;;;;;;6308505;28;20236;-81
2023/03/14 04:18:03;;;;;;;2.00;2.00;;;10.70;72.10;;;;;;6293211;28;20236;-75
2023/03/14 04:21:06;;;;;;;2.70;2.70;;;10.70;71.70;;;;;;6317555;28;20424;-77
2023/03/14 04:24:10;;;;;;;2.57;2.57;;;10.70;71.80;;;;;;6326638;28;21755;-76
2023/03/14 04:27:15;;;;;;;2.30;2.30;;;10.70;71.80;;;;;;6316872;28;20280;-78
2023/03/14 04:30:20;;;;;;;2.40;2.40;;;10.80;71.40;;;;;;6317947;28;20256;-77
2023/03/14 04:33:25;;;;;;;2.33;2.33;;;10.80;71.20;;;;;;6291824;28;20660;-81
2023/03/14 04:36:28;;;;;;;2.57;2.57;;;10.70;71.50;;;;;;6289327;28;20443;-80
2023/03/14 04:39:31;;;;;;;2.47;2.47;;;10.80;71.20;;;;;;6281349;28;20815;-83
2023/03/14 04:42:34;;;;;;;2.40;2.40;;;10.70;71.20;;;;;;6291134;28;20518;-78
2023/03/14 04:45:42;;;;;;;2.43;2.37;;;10.70;71.40;;;;;;6288627;28;20744;-82
2023/03/14 04:48:45;;;;;;;2.40;2.40;;;10.60;71.40;;;;;;6287579;28;20670;-80
2023/03/14 04:51:50;;;;;;;2.90;2.90;;;10.60;71.40;;;;;;6287754;28;20240;-78
2023/03/14 04:54:54;;;;;;;2.33;2.23;;;10.60;71.20;;;;;;6316400;28;20259;-77
2023/03/14 04:57:57;;;;;;;2.40;2.30;;;10.60;71.10;;;;;;6317480;28;20215;-77
2023/03/14 05:01:05;;;;;;;2.50;2.40;;;10.60;71.20;;;;;;6316175;28;20251;-77
2023/03/14 05:04:08;;;;;;;2.50;2.50;;;10.60;71.10;;;;;;6329426;28;20217;-78
2023/03/14 05:07:11;;;;;;;2.57;2.47;;;10.60;71.10;;;;;;6290914;28;20244;-80
2023/03/14 05:10:17;;;;;;;2.80;2.70;;;10.60;71.00;;;;;;6285205;28;20257;-78
2023/03/14 05:13:20;;;;;;;2.60;2.60;;;10.60;70.90;;;;;;6273830;28;20748;-80
2023/03/14 05:16:24;;;;;;;2.20;2.20;;;10.60;70.90;;;;;;6282933;28;20233;-81
2023/03/14 05:19:27;;;;;;;2.77;2.57;;;10.60;70.90;;;;;;6285284;28;20240;-81
2023/03/14 05:22:30;;;;;;;2.70;2.60;;;10.50;70.90;;;;;;6276094;28;20241;-80
2023/03/14 05:25:33;;;;;;;3.10;3.00;;;10.50;70.90;;;;;;6264771;28;20590;-79
2023/03/14 05:28:36;;;;;;;2.57;2.47;;;10.50;70.70;;;;;;6278508;28;20237;-80
2023/03/14 05:31:41;;;;;;;2.80;2.80;;;10.50;70.80;;;;;;6288114;28;20878;-80
2023/03/14 05:34:44;;;;;;;2.83;2.80;;;10.40;70.70;;;;;;6278820;28;20316;-79
2023/03/14 05:37:47;;;;;;;3.10;2.93;;;10.50;70.50;;;;;;6283491;28;20265;-80
2023/03/14 05:40:50;;;;;;;2.63;2.53;;;10.50;70.50;;;;;;6281101;28;20240;-80
2023/03/14 05:43:53;;;;;;;2.40;2.40;;;10.50;70.40;;;;;;6279337;28;20227;-79
2023/03/14 05:47:02;;;;;;;3.43;3.23;;;10.50;70.00;;;;;;6272502;28;20271;-78
2023/03/14 05:50:06;;;;;;;2.53;2.43;;;10.50;70.00;;;;;;6252878;28;20717;-78
2023/03/14 05:53:09;;;;;;;2.83;2.73;;;10.50;69.80;;;;;;6274371;28;20253;-78
2023/03/14 05:56:12;;;;;;;2.80;2.70;;;10.60;69.70;;;;;;6281208;28;20233;-77
2023/03/14 05:59:15;;;;;;;3.00;2.90;;;10.60;69.40;;;;;;6272026;28;20222;-79
2023/03/14 06:02:20;;;;;;;2.40;2.30;;;10.60;69.30;;;;;;6280551;28;20277;-78
2023/03/14 06:05:23;;;;;;;2.60;2.50;;;10.70;69.00;;;;;;6270831;28;20380;-80
2023/03/14 06:08:26;;;;;;;2.60;2.60;;;10.70;68.70;;;;;;6276099;28;20264;-75
2023/03/14 06:11:30;;;;;;;2.83;2.63;;;10.70;68.70;;;;;;6264818;28;20259;-81
2023/03/14 06:14:33;;;;;;;2.50;2.43;;;10.70;68.60;;;;;;6280618;28;20244;-83
2023/03/14 06:17:38;;;;;;;2.70;2.70;;;10.80;68.40;;;;;;6282715;28;20243;-83
2023/03/14 06:20:42;;;;;;;2.97;2.77;;;10.80;68.20;;;;;;6279453;28;20241;-79
2023/03/14 06:23:46;;;;;;;2.70;2.60;;;10.90;67.80;;;;;;6258683;28;20241;-75
2023/03/14 06:26:49;;;;;;;3.10;2.90;;;10.90;67.70;;;;;;6270276;28;20234;-76
2023/03/14 06:29:52;;;;;;;2.90;2.80;;;10.90;67.80;;;;;;6284605;28;20646;-83
2023/03/14 06:32:57;;;;;;;3.33;3.10;;;10.90;67.50;;;;;;6291912;28;20265;-81
2023/03/14 06:36:01;;;;;;;2.80;2.63;;;10.90;67.40;;;;;;6295690;28;20249;-80
2023/03/14 06:39:04;;;;;;;2.73;2.63;;;10.90;67.40;;;;;;6287552;28;20221;-81
2023/03/14 06:42:08;;;;;;;2.90;2.80;;;11.00;67.30;;;;;;6277227;28;20222;-79
2023/03/14 06:45:12;;;;;;;2.63;2.60;;;11.00;67.00;;;;;;6304857;28;20238;-81
2023/03/14 06:48:18;;;;;;;4.73;3.00;;;11.10;67.00;;;;;;6289745;28;20290;-84
2023/03/14 06:51:22;;;;;;;3.40;3.10;;;11.10;66.90;;;;;;6287411;28;20763;-83
2023/03/14 06:54:25;;;;;;;5.63;3.00;;;11.10;66.90;;;;;;6297114;27;20244;-85
2023/03/14 06:57:28;;;;;;;3.40;3.20;;;11.20;66.40;;;;;;6298678;28;20255;-83
2023/03/14 07:00:32;;;;;;;6.27;3.00;;;11.30;66.00;;;;;;6296379;28;20260;-82
2023/03/14 07:03:36;;;;;;;3.37;3.17;;;11.40;65.90;;;;;;6302173;28;20312;-83
2023/03/14 07:06:43;;;;;;;2.90;2.80;;;11.40;66.10;;;;;;6295619;28;20679;-83
2023/03/14 07:09:49;;;;;;;2.93;2.83;;;11.50;65.80;;;;;;6281559;28;20252;-84
2023/03/14 07:12:53;;;;;;;3.20;3.10;;;11.50;65.60;;;;;;6279527;27;20244;-85
2023/03/14 07:15:57;;;;;;;3.00;2.80;;;11.50;65.90;;;;;;6281799;28;20271;-84
2023/03/14 07:19:02;;;;;;;3.43;2.60;;;11.40;65.90;;;;;;6278870;28;20309;-78
2023/03/14 07:22:05;;;;;;;2.93;2.83;;;11.40;65.90;;;;;;6263367;28;20238;-84
2023/03/14 07:25:14;;;;;;;3.00;2.83;;;11.40;66.00;;;;;;6289640;28;20242;-83
2023/03/14 07:28:17;;;;;;;5.90;3.50;;;11.30;66.10;;;;;;6260787;28;20595;-82
2023/03/14 07:31:20;;;;;;;3.57;3.37;;;11.30;66.10;;;;;;6278166;28;20249;-82
2023/03/14 07:34:25;;;;;;;3.40;2.93;;;11.40;66.00;;;;;;6267802;28;20743;-82
2023/03/14 07:37:28;;;;;;;2.93;2.73;;;11.40;65.90;;;;;;6278796;28;20730;-84
2023/03/14 07:40:32;;;;;;;3.10;3.00;;;11.40;66.00;;;;;;6281638;28;20244;-83
2023/03/14 07:43:37;;;;;;;3.23;3.00;;;11.50;65.60;;;;;;6289657;28;20322;-83
2023/03/14 07:46:40;;;;;;;4.27;3.20;;;11.50;65.80;;;;;;6292954;28;20247;-83
2023/03/14 07:49:44;;;;;;;5.20;3.03;;;11.50;65.80;;;;;;6282420;27;20245;-83
2023/03/14 07:52:47;;;;;;;3.20;3.00;;;11.40;66.10;;;;;;6273208;28;20233;-86
2023/03/14 07:55:52;;;;;;;4.70;2.70;;;11.40;66.00;;;;;;6283148;28;20412;-82
2023/03/14 07:58:56;;;;;;;3.40;3.10;;;11.40;65.80;;;;;;6280878;28;20240;-82
2023/03/14 08:01:59;;;;;;;2.97;2.77;;;11.40;66.00;;;;;;6273682;28;20241;-85
2023/03/14 08:05:04;;;;;;;2.50;2.40;;;11.50;65.80;;;;;;6270306;28;20244;-83
2023/03/14 08:08:07;;;;;;;3.33;3.00;;;11.60;65.40;;;;;;6300360;28;20394;-85
2023/03/14 08:11:10;;;;;;;3.07;2.87;;;11.70;65.30;;;;;;6290633;28;20238;-85
2023/03/14 08:14:14;;;;;;;2.90;2.77;;;11.70;65.40;;;;;;6275369;28;20240;-86
2023/03/14 08:17:17;;;;;;;3.73;3.20;;;11.90;65.00;;;;;;6284164;28;20291;-83
2023/03/14 08:20:24;;;;;;;2.80;2.63;;;11.90;64.80;;;;;;6272450;28;20275;-82
2023/03/14 08:23:28;;;;;;;2.90;2.70;;;11.90;64.90;;;;;;6269463;28;20417;-84
2023/03/14 08:26:31;;;;;;;5.80;3.33;;;12.00;64.70;;;;;;6285278;28;20289;-84
2023/03/14 08:29:36;;;;;;;3.23;3.03;;;12.00;64.70;;;;;;6290100;28;20233;-82
2023/03/14 08:32:42;;;;;;;3.40;2.70;;;12.00;64.60;;;;;;6296663;28;20243;-82
2023/03/14 08:35:47;;;;;;;3.07;2.90;;;12.10;64.20;;;;;;6285067;28;20263;-86
2023/03/14 08:38:52;;;;;;;3.00;2.80;;;12.20;64.30;;;;;;6273511;28;20320;-83
2023/03/14 08:41:55;;;;;;;4.30;3.20;;;12.20;64.30;;;;;;6293668;28;20237;-83
2023/03/14 08:44:58;;;;;;;4.00;2.80;;;12.20;64.10;;;;;;6265981;28;20229;-82
2023/03/14 08:48:01;;;;;;;2.77;2.67;;;12.20;64.00;;;;;;6268601;28;20241;-84
2023/03/14 08:51:12;;;;;;;3.27;3.10;;;12.10;64.20;;;;;;6288395;28;20797;-77
2023/03/14 08:54:15;;;;;;;3.27;3.07;;;12.20;64.00;;;;;;6276696;28;20283;-80
2023/03/14 08:57:18;;;;;;;3.57;2.83;;;12.20;64.30;;;;;;6306610;27;20228;-80
2023/03/14 09:00:23;;;;;;;3.00;2.77;;;12.10;64.30;;;;;;6304161;28;20294;-79
2023/03/14 09:03:28;;;;;;;3.53;3.10;;;12.20;63.90;;;;;;6285467;28;20242;-83
2023/03/14 09:06:38;;;;;;;3.77;2.80;;;12.20;64.00;;;;;;6278780;28;20229;-81
2023/03/14 09:09:51;;;;;;;6.30;4.13;;;12.20;63.70;;;;;;6260026;28;20684;-81
2023/03/14 09:12:54;;;;;;;2.80;2.60;;;12.20;63.60;;;;;;6298029;28;20424;-81
2023/03/14 09:16:00;;;;;;;4.77;3.30;;;12.30;63.40;;;;;;6270911;28;20754;-85
2023/03/14 09:19:04;;;;;;;3.13;2.93;;;12.50;63.40;;;;;;6272269;28;20721;-83
2023/03/14 09:22:08;;;;;;;7.47;3.57;;;12.70;63.00;;;;;;6264167;28;20306;-84
2023/03/14 09:25:15;;;;;;;3.93;3.53;;;12.90;62.50;;;;;;6257948;28;20233;-83
2023/03/14 09:28:18;;;;;;;5.50;3.50;;;13.00;62.70;;;;;;6272611;28;20616;-85
2023/03/14 09:31:21;;;;;;;3.10;2.90;;;13.10;62.30;;;;;;6268471;28;20314;-81
2023/03/14 09:34:24;;;;;;;4.20;2.87;;;13.20;61.70;;;;;;6260039;28;20261;-83
2023/03/14 09:37:29;;;;;;;2.80;2.60;;;13.30;61.90;;;;;;6274076;27;20256;-83
2023/03/14 09:40:35;;;;;;;4.07;2.60;;;13.60;60.80;;;;;;6271990;28;20237;-82
2023/03/14 09:44:10;;;;;;;2.60;2.43;;;13.60;60.10;;;;;;6277184;28;20301;-83
2023/03/14 09:47:19;;;;;;;3.03;2.73;;;13.90;59.90;;;;;;6251994;28;20424;-81
2023/03/14 09:50:24;;;;;;;2.87;2.77;;;13.90;59.80;;;;;;6277797;28;20230;-81
2023/03/14 09:53:37;;;;;;;2.77;2.33;;;13.60;60.10;;;;;;6274677;28;20311;-83
2023/03/14 09:56:41;;;;;;;2.77;2.47;;;13.60;60.10;;;;;;6271101;28;20235;-81
2023/03/14 09:59:46;;;;;;;2.73;2.53;;;13.50;60.40;;;;;;6295984;28;20233;-83
2023/03/14 10:02:54;;;;;;;2.47;2.37;;;13.30;60.50;;;;;;6288074;28;20239;-80
2023/03/14 10:05:58;;;;;;;3.20;3.00;;;13.30;60.00;;;;;;6293373;28;20228;-81
2023/03/14 10:09:05;;;;;;;2.77;2.50;;;13.20;60.30;;;;;;6299737;28;20242;-85
2023/03/14 10:12:09;;;;;;;5.30;4.73;;;13.10;60.00;;;;;;6296921;28;20301;-80
2023/03/14 10:15:17;;;;;;;2.67;2.57;;;13.10;60.20;;;;;;6293197;28;20233;-85
2023/03/14 10:18:23;;;;;;;2.67;2.50;;;13.10;60.30;;;;;;6284942;28;20234;-85
2023/03/14 10:21:30;;;;;;;3.00;2.83;;;13.10;60.30;;;;;;6284364;28;20387;-83
2023/03/14 10:24:36;;;;;;;2.53;2.43;;;13.10;60.00;;;;;;6287991;28;20854;-83
2023/03/14 10:27:39;;;;;;;2.43;2.33;;;13.10;59.80;;;;;;6299584;28;20720;-84
2023/03/14 10:30:47;;;;;;;3.17;2.37;;;13.30;59.30;;;;;;6249776;28;20240;-82
2023/03/14 10:33:59;;;;;;;5.00;2.97;;;13.20;59.40;;;;;;6286798;28;20721;-84
2023/03/14 10:37:08;;;;;;;2.63;2.53;;;13.20;59.40;;;;;;6299765;28;20294;-81
2023/03/14 10:40:15;;;;;;;2.53;2.40;;;13.10;59.70;;;;;;6287829;28;20241;-82
2023/03/14 10:43:21;;;;;;;2.70;2.60;;;13.10;59.50;;;;;;6292590;28;20230;-83
2023/03/14 10:46:27;;;;;;;3.00;2.87;;;13.00;59.50;;;;;;6276611;28;20588;-83
2023/03/14 10:49:33;;;;;;;2.60;2.30;;;13.10;59.40;;;;;;6288612;28;20231;-83
2023/03/14 10:52:36;;;;;;;2.70;2.60;;;13.10;59.10;;;;;;6284829;28;20249;-84
2023/03/14 10:56:04;;;;;;;4.70;2.73;;;13.10;58.90;;;;;;6279733;28;20321;-81
2023/03/14 10:59:13;;;;;;;2.63;2.53;;;13.20;58.60;;;;;;6275044;28;20246;-86
2023/03/14 11:02:37;;;;;;;2.73;2.60;;;13.10;58.80;;;;;;6298482;27;20229;-83
2023/03/14 11:05:44;;;;;;;2.37;2.20;;;13.10;59.40;;;;;;6279510;28;20230;-83
2023/03/14 11:08:54;;;;;;;3.27;2.33;;;13.00;59.40;;;;;;6289230;28;20229;-82
2023/03/14 11:12:05;;;;;;;2.40;2.27;;;13.10;59.40;;;;;;6284468;28;20293;-87
2023/03/14 11:15:19;;;;;;;2.50;2.40;;;13.10;59.30;;;;;;6286776;28;20289;-85
2023/03/14 11:18:55;;;;;;;2.83;2.73;;;13.10;59.10;;;;;;6288720;28;20240;-84
2023/03/14 11:22:05;;;;;;;2.50;2.40;;;13.20;59.30;;;;;;6266507;28;20381;-83
2023/03/14 11:25:21;;;;;;;2.43;2.33;;;13.20;59.20;;;;;;6274109;28;20247;-83
2023/03/14 11:28:36;;;;;;;2.40;2.40;;;13.20;59.30;;;;;;6266481;28;20233;-84
2023/03/14 11:31:45;;;;;;;2.07;2.07;;;13.10;59.70;;;;;;6286663;28;20702;-82
2023/03/14 11:34:53;;;;;;;3.23;2.93;;;13.20;59.40;;;;;;6288315;28;20780;-82
2023/03/14 11:38:06;;;;;;;3.17;2.60;;;13.30;60.00;;;;;;6265788;28;20326;-85
2023/03/14 11:41:15;;;;;;;2.50;2.17;;;13.30;59.80;;;;;;6278256;28;20318;-84
2023/03/14 11:44:22;;;;;;;3.00;2.47;;;13.30;60.10;;;;;;6276741;28;20229;-85
2023/03/14 11:47:30;;;;;;;2.30;2.20;;;13.20;60.00;;;;;;6295045;28;20267;-84
2023/03/14 11:50:35;;;;;;;2.20;2.10;;;13.30;60.20;;;;;;6288601;28;20713;-83
2023/03/14 11:53:48;;;;;;;2.57;2.37;;;13.30;60.20;;;;;;6288941;28;20801;-81
2023/03/14 11:56:56;;;;;;;4.40;4.10;;;13.30;60.90;;;;;;6288981;28;20244;-81
2023/03/14 12:00:10;;;;;;;2.30;2.30;;;13.20;61.30;;;;;;6288192;27;20237;-83
2023/03/14 12:03:22;;;;;;;2.80;2.63;;;13.30;61.20;;;;;;6287230;28;20320;-81
2023/03/14 12:06:29;;;;;;;2.80;2.60;;;13.30;61.30;;;;;;6264469;28;20326;-82
2023/03/14 12:09:33;;;;;;;2.60;2.40;;;13.50;61.10;;;;;;6263088;28;20284;-83
2023/03/14 12:12:37;;;;;;;2.07;2.07;;;13.50;61.30;;;;;;6281515;28;20244;-85
2023/03/14 12:15:47;;;;;;;3.13;2.60;;;13.50;61.30;;;;;;6272201;28;20283;-84
2023/03/14 12:18:52;;;;;;;2.60;2.50;;;13.30;62.20;;;;;;6280445;28;20658;-82
2023/03/14 12:21:59;;;;;;;2.50;2.40;;;13.30;62.40;;;;;;6267170;28;20242;-82
2023/03/14 12:25:07;;;;;;;2.83;2.63;;;13.30;62.50;;;;;;6281494;27;20667;-81
2023/03/14 12:28:21;;;;;;;3.60;3.30;;;13.30;62.50;;;;;;6282382;28;20255;-82
2023/03/14 12:31:42;;;;;;;2.47;2.37;;;13.10;62.90;;;;;;6271201;28;20257;-82
2023/03/14 12:34:46;;;;;;;3.50;3.30;;;13.00;63.00;;;;;;6266296;28;20253;-82
2023/03/14 12:37:53;;;;;;;3.30;3.10;;;13.00;63.10;;;;;;6284811;28;20468;-81
2023/03/14 12:41:02;;;;;;;3.83;3.63;;;13.10;62.90;;;;;;6265176;28;20735;-83
2023/03/14 12:44:41;;;;;;;3.27;3.03;;;13.10;63.30;;;;;;6289479;28;20229;-84
2023/03/14 12:48:06;;;;;;;3.33;2.60;;;13.30;63.20;;;;;;6188564;28;20770;-83
2023/03/14 12:51:15;;;;;;;3.57;3.30;;;13.20;63.20;;;;;;6285957;28;20244;-85
2023/03/14 12:54:38;;;;;;;2.40;2.30;;;13.10;64.00;;;;;;6291735;27;20237;-83
2023/03/14 12:57:46;;;;;;;4.83;4.47;;;13.30;63.50;;;;;;6272718;28;20233;-83
2023/03/14 13:00:55;;;;;;;2.43;2.33;;;13.50;63.30;;;;;;6272593;28;20248;-84
2023/03/14 13:04:08;;;;;;;2.80;2.70;;;13.60;62.30;;;;;;6277429;28;20372;-83
2023/03/14 13:07:13;;;;;;;2.50;2.50;;;13.60;62.50;;;;;;6280365;28;20244;-82
2023/03/14 13:10:22;;;;;;;2.77;2.60;;;13.50;63.20;;;;;;6319858;27;20501;-79
2023/03/14 13:13:27;;;;;;;2.20;2.20;;;13.30;64.00;;;;;;6310663;28;20221;-81
2023/03/14 13:16:30;;;;;;;2.90;2.03;;;12.80;65.40;;;;;;6305998;28;20227;-79
2023/03/14 13:19:35;;;;;;;2.20;2.20;;;12.60;66.60;;;;;;6311570;28;20236;-78
2023/03/14 13:22:38;;;;;;;2.40;2.30;;;12.50;67.80;;;;;;6294557;28;20237;-79
2023/03/14 13:25:42;;;;;;;2.27;2.17;;;12.20;68.50;;;;;;6310312;28;20246;-79
2023/03/14 13:28:45;;;;;;;4.53;2.20;;;12.00;70.50;;;;;;6290906;28;20233;-81
2023/03/14 13:31:50;;;;;;;2.23;2.13;;;11.90;70.90;;;;;;6268865;28;20245;-81
2023/03/14 13:34:59;;;;;;;2.10;2.10;;;12.00;71.10;;;;;;6266541;28;20702;-83
2023/03/14 13:38:03;;;;;;;2.93;2.83;;;12.50;71.20;;;;;;6265493;28;20237;-82
2023/03/14 13:41:14;;;;;;;3.30;2.47;;;12.50;71.10;;;;;;6285465;28;20252;-83
2023/03/14 13:44:22;;;;;;;3.10;3.00;;;12.60;71.40;;;;;;6288162;28;20230;-84
2023/03/14 13:47:27;;;;;;;3.07;2.97;;;12.80;69.90;;;;;;6275381;28;20251;-84
2023/03/14 13:50:32;;;;;;;2.60;2.50;;;12.90;69.20;;;;;;6267002;28;20879;-84
2023/03/14 13:53:44;;;;;;;2.40;2.40;;;13.10;68.30;;;;;;6301165;28;20213;-82
2023/03/14 13:56:48;;;;;;;2.50;2.43;;;13.50;67.30;;;;;;6323174;28;20209;-82
2023/03/14 14:00:05;;;;;;;2.00;2.00;;;13.90;66.50;;;;;;6316208;28;20262;-80
2023/03/14 14:03:12;;;;;;;2.20;2.10;;;14.00;64.10;;;;;;6318027;27;20217;-79
2023/03/14 14:06:28;;;;;;;2.10;2.10;;;13.90;63.80;;;;;;6304968;28;20285;-82
2023/03/14 14:09:38;;;;;;;3.80;2.03;;;13.70;63.60;;;;;;6284707;28;20244;-85
2023/03/14 14:12:45;;;;;;;2.40;2.30;;;13.50;64.20;;;;;;6269597;28;20698;-84
2023/03/14 14:15:52;;;;;;;2.90;2.80;;;13.70;64.10;;;;;;6274540;28;20314;-84
2023/03/14 14:18:56;;;;;;;2.40;2.30;;;13.90;64.00;;;;;;6276052;28;20229;-83
2023/03/14 14:22:02;;;;;;;2.30;2.30;;;13.90;63.30;;;;;;6289404;28;20647;-82
2023/03/14 14:25:06;;;;;;;2.30;2.30;;;13.90;63.60;;;;;;6284370;28;20310;-83
2023/03/14 14:28:18;;;;;;;2.30;2.30;;;13.90;64.00;;;;;;6269629;28;20226;-85
2023/03/14 14:31:24;;;;;;;2.00;2.00;;;13.80;63.70;;;;;;6282922;28;20245;-84
2023/03/14 14:34:28;;;;;;;2.40;2.20;;;13.80;63.80;;;;;;6267295;28;20240;-83
2023/03/14 14:37:34;;;;;;;2.40;2.40;;;13.80;63.90;;;;;;6272799;28;20241;-81
2023/03/14 14:40:45;;;;;;;2.07;2.07;;;13.80;63.70;;;;;;6276743;28;20234;-83
2023/03/14 14:43:48;;;;;;;2.97;2.73;;;13.70;64.00;;;;;;6286809;28;20226;-83
2023/03/14 14:46:51;;;;;;;2.47;2.47;;;13.50;64.40;;;;;;6288419;27;20230;-82
2023/03/14 14:49:59;;;;;;;2.17;2.10;;;13.40;64.70;;;;;;6274287;28;20228;-83
2023/03/14 14:53:24;;;;;;;2.03;2.03;;;13.50;63.60;;;;;;6271758;28;20218;-83
2023/03/14 14:56:28;;;;;;;2.10;2.00;;;13.60;62.60;;;;;;6274613;28;20318;-84
2023/03/14 14:59:33;;;;;;;2.07;2.00;;;13.60;62.80;;;;;;6269101;28;20297;-81
2023/03/14 15:02:43;;;;;;;2.40;2.30;;;13.50;62.80;;;;;;6274810;28;20288;-81
2023/03/14 15:05:47;;;;;;;1.90;1.90;;;13.40;63.10;;;;;;6284512;28;20243;-84
2023/03/14 15:08:51;;;;;;;1.80;1.80;;;13.30;63.10;;;;;;6287991;28;20232;-84
2023/03/14 15:11:54;;;;;;;2.07;1.97;;;13.30;62.70;;;;;;6294244;27;20487;-85
2023/03/14 15:14:57;;;;;;;2.37;2.27;;;13.10;63.40;;;;;;6296215;28;20232;-83
2023/03/14 15:18:00;;;;;;;2.23;2.10;;;13.10;63.20;;;;;;6286526;28;20244;-84
2023/03/14 15:21:04;;;;;;;2.00;2.00;;;13.10;63.40;;;;;;6287019;28;20233;-83
2023/03/14 15:24:10;;;;;;;2.47;2.20;;;13.00;63.90;;;;;;6272635;28;20394;-81
2023/03/14 15:27:15;;;;;;;2.60;2.43;;;11.70;64.90;;;;;;6283279;28;20336;-78
2023/03/14 15:30:19;;;;;;;2.33;2.23;;;9.70;67.60;;;;;;6278699;28;20279;-82
2023/03/14 15:33:23;;;;;;;2.00;2.00;;;8.30;71.00;;;;;;6286106;28;20645;-80
2023/03/14 15:36:28;;;;;;;2.73;2.60;;;7.70;72.20;;;;;;6260624;28;20290;-81
2023/03/14 15:39:33;;;;;;;2.43;2.43;;;7.00;74.10;;;;;;6254852;28;20257;-80
2023/03/14 15:42:36;;;;;;;2.40;2.40;;;6.80;75.10;;;;;;6271320;28;20613;-79
2023/03/14 15:45:41;;;;;;;2.50;2.40;;;6.60;75.10;;;;;;6283379;28;20260;-80
2023/03/14 15:48:46;;;;;;;2.30;2.30;;;6.30;74.60;;;;;;6285054;28;20238;-81
2023/03/14 15:51:49;;;;;;;2.30;2.30;;;6.10;74.70;;;;;;6278675;28;20256;-81
2023/03/14 15:54:54;;;;;;;2.40;2.40;;;6.00;75.00;;;;;;6263716;28;20240;-81
2023/03/14 15:57:58;;;;;;;2.40;2.30;;;5.80;74.90;;;;;;6282038;28;20287;-83
2023/03/14 16:01:02;;;;;;;3.03;2.93;;;5.70;74.90;;;;;;6270985;28;20248;-79
2023/03/14 16:04:06;;;;;;;2.97;2.97;;;5.60;75.50;;;;;;6274934;28;20236;-80
2023/03/14 16:07:09;;;;;;;3.10;2.90;;;5.00;73.30;;;;;;6282892;28;20316;-79
2023/03/14 16:10:17;;;;;;;2.77;2.77;;;4.40;72.60;;;;;;6275941;28;20323;-82